Cape Girardeau Regional Airport
KCGI : now visible

Airfield :











YOU CAN JOIN US ON...

 
LOGIN :

Register | Disclaimer

   EN    FR    IT 

 









Legend :    VFR   Marginal VFR   IFR   Intensive IFR   Very Intensive IFR
Visi :
Ceiling :
>= 8 km
>= 3000ft
5 to 8 km
1000 to 3000 ft
1500m to 5 km
500 to 1000 ft
800 to 1500m
200 to 500 ft
< 800m
< 200 ft
Symbols :   Thunderstorms  Fog  Heavy snow  Heavy precipitations  Wind > 20 kt






- Airport Elevation : 342 ft
- IATA code : CGI


KCGI - Cape Girardeau Regional

CURRENT METAR :
  • 130353Z AUTO 00000KT 10SM CLR M01/M03 A3013 RMK AO2 SLP207 T10111028

EXPIRED METARs :
  • 130253Z AUTO 00000KT 10SM CLR 00/M03 A3015 RMK AO2 SLP213 T00001028 58009
  • 130153Z AUTO 00000KT 10SM CLR 01/M02 A3016 RMK AO2 SLP217 T00061022

TAF KCGI
Valid from the 13 at 00:00 until the 14 at 00:00 UTC


122320Z 1300/1324 16004KT P6SM SCT250
FM131200 18005KT P6SM SCT050 BKN100



MET'MAP, your aeronautical weather chart ! - Copyright ORBIFLY December 2007 - Disclaimer

ORBIFLY MET'MAP TEAM :

Programming & Development : Alexandra Zaïnal
Concept & original design : Baudouin d'Aumeries
Assistance for programming : Marc-Olivier Méhu
Technical & hardware support : Manuel Goepfert

Contact : metmap@orbifly.com




SOURCES & CREDITS :

   NOAA       Earth
Advisory